sensor_id;sensor_type;location;lat;lon;timestamp;pressure;altitude;pressure_sealevel;temperature;humidity
20019;BME280;10170;42.502;26.526;2022-09-09T00:01:23;99991.91;;;17.79;100.00
20019;BME280;10170;42.502;26.526;2022-09-09T00:03:58;99997.22;;;17.91;100.00
20019;BME280;10170;42.502;26.526;2022-09-09T00:06:45;99988.50;;;17.83;100.00
20019;BME280;10170;42.502;26.526;2022-09-09T00:09:18;99984.78;;;17.73;100.00
20019;BME280;10170;42.502;26.526;2022-09-09T00:11:58;99995.09;;;17.76;100.00
20019;BME280;10170;42.502;26.526;2022-09-09T00:17:07;99996.22;;;17.97;100.00
20019;BME280;10170;42.502;26.526;2022-09-09T00:19:52;99998.34;;;17.78;100.00
20019;BME280;10170;42.502;26.526;2022-09-09T00:22:25;99992.31;;;17.71;100.00
20019;BME280;10170;42.502;26.526;2022-09-09T00:25:12;99991.63;;;17.64;100.00
20019;BME280;10170;42.502;26.526;2022-09-09T00:27:50;100001.13;;;17.83;100.00
20019;BME280;10170;42.502;26.526;2022-09-09T00:30:21;100006.16;;;17.63;100.00
20019;BME280;10170;42.502;26.526;2022-09-09T00:32:52;99986.25;;;17.47;100.00
20019;BME280;10170;42.502;26.526;2022-09-09T00:35:44;99983.72;;;17.57;100.00
20019;BME280;10170;42.502;26.526;2022-09-09T00:38:18;99986.16;;;17.59;100.00
20019;BME280;10170;42.502;26.526;2022-09-09T00:40:51;99986.69;;;17.72;100.00
20019;BME280;10170;42.502;26.526;2022-09-09T00:43:39;99991.25;;;17.72;100.00
20019;BME280;10170;42.502;26.526;2022-09-09T01:02:25;99972.47;;;17.60;100.00
20019;BME280;10170;42.502;26.526;2022-09-09T01:05:00;99985.59;;;17.57;100.00
20019;BME280;10170;42.502;26.526;2022-09-09T01:07:29;99976.56;;;17.63;100.00
20019;BME280;10170;42.502;26.526;2022-09-09T01:09:57;99984.13;;;17.66;100.00
20019;BME280;10170;42.502;26.526;2022-09-09T01:12:42;99986.16;;;17.59;100.00
20019;BME280;10170;42.502;26.526;2022-09-09T01:20:15;99995.56;;;17.45;100.00
20019;BME280;10170;42.502;26.526;2022-09-09T01:28:15;99989.88;;;17.13;100.00
20019;BME280;10170;42.502;26.526;2022-09-09T01:30:45;99994.28;;;17.19;100.00
20019;BME280;10170;42.502;26.526;2022-09-09T01:33:16;99989.03;;;17.24;100.00
20019;BME280;10170;42.502;26.526;2022-09-09T01:35:57;99992.47;;;17.08;100.00
20019;BME280;10170;42.502;26.526;2022-09-09T01:38:31;99984.41;;;17.08;100.00
20019;BME280;10170;42.502;26.526;2022-09-09T01:40:58;99988.16;;;17.07;100.00
20019;BME280;10170;42.502;26.526;2022-09-09T01:43:25;99976.97;;;17.27;100.00
20019;BME280;10170;42.502;26.526;2022-09-09T01:45:55;99983.88;;;17.23;100.00
20019;BME280;10170;42.502;26.526;2022-09-09T01:48:24;99981.59;;;17.03;100.00
20019;BME280;10170;42.502;26.526;2022-09-09T01:50:51;99983.88;;;16.95;100.00
20019;BME280;10170;42.502;26.526;2022-09-09T01:53:19;99982.34;;;16.99;100.00
20019;BME280;10170;42.502;26.526;2022-09-09T02:01:51;99972.69;;;16.86;100.00
20019;BME280;10170;42.502;26.526;2022-09-09T02:04:38;99967.72;;;16.55;100.00
20019;BME280;10170;42.502;26.526;2022-09-09T02:07:36;99976.38;;;16.45;100.00
20019;BME280;10170;42.502;26.526;2022-09-09T02:10:03;99970.88;;;16.40;100.00
20019;BME280;10170;42.502;26.526;2022-09-09T02:12:33;99976.47;;;16.39;100.00
20019;BME280;10170;42.502;26.526;2022-09-09T02:15:05;99972.53;;;16.41;100.00
20019;BME280;10170;42.502;26.526;2022-09-09T02:17:36;99975.78;;;16.43;100.00
20019;BME280;10170;42.502;26.526;2022-09-09T02:20:10;99977.31;;;16.39;100.00
20019;BME280;10170;42.502;26.526;2022-09-09T02:22:41;99968.19;;;16.40;100.00
20019;BME280;10170;42.502;26.526;2022-09-09T02:25:12;99980.03;;;16.51;100.00
20019;BME280;10170;42.502;26.526;2022-09-09T02:27:41;99946.75;;;16.29;100.00
20019;BME280;10170;42.502;26.526;2022-09-09T02:30:10;99978.38;;;16.50;100.00
20019;BME280;10170;42.502;26.526;2022-09-09T02:32:39;99961.09;;;16.34;100.00
20019;BME280;10170;42.502;26.526;2022-09-09T02:35:11;99971.34;;;16.37;100.00
20019;BME280;10170;42.502;26.526;2022-09-09T02:37:40;99975.81;;;16.20;100.00
20019;BME280;10170;42.502;26.526;2022-09-09T02:40:10;99976.25;;;16.40;100.00
20019;BME280;10170;42.502;26.526;2022-09-09T02:42:45;99954.69;;;16.24;100.00
20019;BME280;10170;42.502;26.526;2022-09-09T02:45:21;99983.72;;;16.15;100.00
20019;BME280;10170;42.502;26.526;2022-09-09T02:48:29;99978.84;;;16.24;100.00
20019;BME280;10170;42.502;26.526;2022-09-09T02:51:10;99990.25;;;16.19;100.00
20019;BME280;10170;42.502;26.526;2022-09-09T02:53:55;99983.72;;;16.27;100.00
20019;BME280;10170;42.502;26.526;2022-09-09T02:56:27;99974.03;;;16.03;100.00
20019;BME280;10170;42.502;26.526;2022-09-09T02:58:56;99984.31;;;16.06;100.00
20019;BME280;10170;42.502;26.526;2022-09-09T03:01:23;99979.75;;;16.06;100.00
20019;BME280;10170;42.502;26.526;2022-09-09T03:03:50;99968.06;;;15.66;100.00
20019;BME280;10170;42.502;26.526;2022-09-09T03:06:17;99977.63;;;15.62;100.00
20019;BME280;10170;42.502;26.526;2022-09-09T03:08:44;99983.38;;;15.77;100.00
20019;BME280;10170;42.502;26.526;2022-09-09T03:11:16;99973.94;;;15.86;100.00
20019;BME280;10170;42.502;26.526;2022-09-09T03:13:43;99974.63;;;15.93;100.00
20019;BME280;10170;42.502;26.526;2022-09-09T03:16:10;99975.19;;;15.83;100.00
20019;BME280;10170;42.502;26.526;2022-09-09T03:18:37;99975.84;;;15.56;100.00
20019;BME280;10170;42.502;26.526;2022-09-09T03:21:04;99972.16;;;15.39;100.00
20019;BME280;10170;42.502;26.526;2022-09-09T03:23:31;99981.44;;;15.25;100.00
20019;BME280;10170;42.502;26.526;2022-09-09T03:25:57;99987.28;;;15.22;100.00
20019;BME280;10170;42.502;26.526;2022-09-09T03:28:25;99969.47;;;14.98;100.00
20019;BME280;10170;42.502;26.526;2022-09-09T03:30:59;99983.63;;;15.16;100.00
20019;BME280;10170;42.502;26.526;2022-09-09T03:33:26;99975.44;;;15.11;100.00
20019;BME280;10170;42.502;26.526;2022-09-09T03:35:54;99985.22;;;15.35;100.00
20019;BME280;10170;42.502;26.526;2022-09-09T03:38:24;99981.56;;;15.30;100.00
20019;BME280;10170;42.502;26.526;2022-09-09T03:40:52;99984.13;;;15.25;100.00
20019;BME280;10170;42.502;26.526;2022-09-09T03:43:26;99976.19;;;15.18;100.00
20019;BME280;10170;42.502;26.526;2022-09-09T03:45:53;99982.47;;;15.24;100.00
20019;BME280;10170;42.502;26.526;2022-09-09T03:48:24;99978.69;;;15.02;100.00
20019;BME280;10170;42.502;26.526;2022-09-09T03:50:52;99971.66;;;15.01;100.00
20019;BME280;10170;42.502;26.526;2022-09-09T03:53:21;99956.38;;;14.90;100.00
20019;BME280;10170;42.502;26.526;2022-09-09T03:55:50;99972.03;;;15.04;100.00
20019;BME280;10170;42.502;26.526;2022-09-09T03:58:22;99966.47;;;15.06;100.00
20019;BME280;10170;42.502;26.526;2022-09-09T04:00:58;99962.56;;;14.90;100.00
20019;BME280;10170;42.502;26.526;2022-09-09T04:03:26;99972.03;;;15.04;100.00
20019;BME280;10170;42.502;26.526;2022-09-09T04:05:55;99968.09;;;15.07;100.00
20019;BME280;10170;42.502;26.526;2022-09-09T04:08:22;99970.56;;;15.38;100.00
20019;BME280;10170;42.502;26.526;2022-09-09T04:10:52;99973.00;;;15.39;100.00
20019;BME280;10170;42.502;26.526;2022-09-09T04:13:19;99978.34;;;15.39;100.00
20019;BME280;10170;42.502;26.526;2022-09-09T04:15:54;99980.09;;;15.75;100.00
20019;BME280;10170;42.502;26.526;2022-09-09T04:18:22;99978.25;;;15.87;100.00
20019;BME280;10170;42.502;26.526;2022-09-09T04:20:51;99963.88;;;15.81;100.00
20019;BME280;10170;42.502;26.526;2022-09-09T04:23:19;99975.91;;;15.91;100.00
20019;BME280;10170;42.502;26.526;2022-09-09T04:25:49;99978.25;;;15.99;100.00
20019;BME280;10170;42.502;26.526;2022-09-09T04:28:17;99984.78;;;16.14;100.00
20019;BME280;10170;42.502;26.526;2022-09-09T04:30:45;99991.91;;;16.20;100.00
20019;BME280;10170;42.502;26.526;2022-09-09T04:33:12;99996.34;;;15.92;100.00
20019;BME280;10170;42.502;26.526;2022-09-09T04:35:47;99997.69;;;15.71;100.00
20019;BME280;10170;42.502;26.526;2022-09-09T04:38:15;99990.19;;;15.50;100.00
20019;BME280;10170;42.502;26.526;2022-09-09T04:40:43;99993.78;;;15.26;100.00
20019;BME280;10170;42.502;26.526;2022-09-09T04:43:11;99993.34;;;15.29;100.00
20019;BME280;10170;42.502;26.526;2022-09-09T04:45:41;99997.53;;;15.25;100.00
20019;BME280;10170;42.502;26.526;2022-09-09T04:48:08;100008.59;;;15.28;100.00
20019;BME280;10170;42.502;26.526;2022-09-09T04:50:36;100004.50;;;15.44;100.00
20019;BME280;10170;42.502;26.526;2022-09-09T04:53:03;99987.06;;;15.35;100.00
20019;BME280;10170;42.502;26.526;2022-09-09T04:55:32;100000.25;;;15.77;100.00
20019;BME280;10170;42.502;26.526;2022-09-09T04:58:05;100004.94;;;15.82;100.00
20019;BME280;10170;42.502;26.526;2022-09-09T05:00:33;100000.88;;;16.03;100.00
20019;BME280;10170;42.502;26.526;2022-09-09T05:03:05;99993.97;;;15.83;100.00
20019;BME280;10170;42.502;26.526;2022-09-09T05:05:33;99983.28;;;15.95;100.00
20019;BME280;10170;42.502;26.526;2022-09-09T05:08:07;99986.63;;;16.37;100.00
20019;BME280;10170;42.502;26.526;2022-09-09T05:10:37;99983.00;;;16.66;100.00
20019;BME280;10170;42.502;26.526;2022-09-09T05:13:05;99984.56;;;16.50;100.00
20019;BME280;10170;42.502;26.526;2022-09-09T05:15:32;99992.47;;;16.45;100.00
20019;BME280;10170;42.502;26.526;2022-09-09T05:18:00;99989.41;;;16.76;100.00
20019;BME280;10170;42.502;26.526;2022-09-09T05:20:28;99991.81;;;16.90;100.00
20019;BME280;10170;42.502;26.526;2022-09-09T05:22:56;99995.25;;;17.13;100.00
20019;BME280;10170;42.502;26.526;2022-09-09T05:25:24;99997.72;;;17.03;100.00
20019;BME280;10170;42.502;26.526;2022-09-09T05:27:53;99991.78;;;17.57;100.00
20019;BME280;10170;42.502;26.526;2022-09-09T05:30:21;100012.34;;;17.63;100.00
20019;BME280;10170;42.502;26.526;2022-09-09T05:32:49;100001.09;;;17.66;100.00
20019;BME280;10170;42.502;26.526;2022-09-09T05:35:16;100011.28;;;18.31;100.00
20019;BME280;10170;42.502;26.526;2022-09-09T05:37:45;100014.69;;;18.59;100.00
20019;BME280;10170;42.502;26.526;2022-09-09T05:40:12;100001.84;;;18.66;100.00
20019;BME280;10170;42.502;26.526;2022-09-09T05:42:40;100005.94;;;19.34;100.00
20019;BME280;10170;42.502;26.526;2022-09-09T05:45:08;100015.81;;;19.50;100.00
20019;BME280;10170;42.502;26.526;2022-09-09T05:47:35;100012.78;;;19.73;100.00
20019;BME280;10170;42.502;26.526;2022-09-09T05:50:04;100002.22;;;19.66;100.00
20019;BME280;10170;42.502;26.526;2022-09-09T05:52:31;100017.31;;;19.99;100.00
20019;BME280;10170;42.502;26.526;2022-09-09T05:54:58;100020.31;;;20.03;100.00
20019;BME280;10170;42.502;26.526;2022-09-09T05:57:25;100005.53;;;20.10;100.00
20019;BME280;10170;42.502;26.526;2022-09-09T05:59:52;100016.53;;;19.99;100.00
20019;BME280;10170;42.502;26.526;2022-09-09T06:02:20;100021.84;;;20.20;100.00
20019;BME280;10170;42.502;26.526;2022-09-09T06:04:47;100014.16;;;20.07;100.00
20019;BME280;10170;42.502;26.526;2022-09-09T06:07:14;100017.22;;;20.57;100.00
20019;BME280;10170;42.502;26.526;2022-09-09T06:09:41;100015.84;;;21.02;100.00
20019;BME280;10170;42.502;26.526;2022-09-09T06:12:08;100017.31;;;21.39;100.00
20019;BME280;10170;42.502;26.526;2022-09-09T06:14:35;100025.75;;;21.63;100.00
20019;BME280;10170;42.502;26.526;2022-09-09T06:17:05;100028.47;;;21.63;100.00
20019;BME280;10170;42.502;26.526;2022-09-09T06:19:32;100017.41;;;21.84;100.00
20019;BME280;10170;42.502;26.526;2022-09-09T06:21:59;100027.97;;;22.26;100.00
20019;BME280;10170;42.502;26.526;2022-09-09T06:24:25;100029.03;;;22.40;100.00
20019;BME280;10170;42.502;26.526;2022-09-09T06:26:52;100009.22;;;22.50;100.00
20019;BME280;10170;42.502;26.526;2022-09-09T06:29:20;100018.63;;;22.82;100.00
20019;BME280;10170;42.502;26.526;2022-09-09T06:31:47;100024.84;;;22.88;100.00
20019;BME280;10170;42.502;26.526;2022-09-09T06:34:14;100029.44;;;22.97;100.00
20019;BME280;10170;42.502;26.526;2022-09-09T06:36:41;100019.03;;;23.15;100.00
20019;BME280;10170;42.502;26.526;2022-09-09T06:39:09;100018.38;;;22.89;100.00
20019;BME280;10170;42.502;26.526;2022-09-09T06:41:41;100021.47;;;23.21;100.00
20019;BME280;10170;42.502;26.526;2022-09-09T06:44:09;100016.41;;;22.99;100.00
20019;BME280;10170;42.502;26.526;2022-09-09T06:46:38;100036.25;;;23.49;100.00
20019;BME280;10170;42.502;26.526;2022-09-09T06:49:08;100031.13;;;23.47;100.00
20019;BME280;10170;42.502;26.526;2022-09-09T06:51:36;100025.81;;;23.71;100.00
20019;BME280;10170;42.502;26.526;2022-09-09T06:54:10;100024.47;;;24.07;100.00
20019;BME280;10170;42.502;26.526;2022-09-09T06:56:38;100019.06;;;23.97;100.00
20019;BME280;10170;42.502;26.526;2022-09-09T06:59:08;100009.59;;;24.28;100.00
20019;BME280;10170;42.502;26.526;2022-09-09T07:01:40;100001.91;;;24.87;100.00
20019;BME280;10170;42.502;26.526;2022-09-09T07:04:08;99995.75;;;23.62;100.00
20019;BME280;10170;42.502;26.526;2022-09-09T07:06:37;99996.00;;;23.12;100.00
20019;BME280;10170;42.502;26.526;2022-09-09T07:09:06;100016.00;;;24.14;100.00
20019;BME280;10170;42.502;26.526;2022-09-09T07:11:39;99990.72;;;24.13;100.00
20019;BME280;10170;42.502;26.526;2022-09-09T07:14:06;100007.00;;;24.13;100.00
20019;BME280;10170;42.502;26.526;2022-09-09T07:16:34;100004.28;;;23.41;100.00
20019;BME280;10170;42.502;26.526;2022-09-09T07:19:04;100005.31;;;23.88;100.00
20019;BME280;10170;42.502;26.526;2022-09-09T07:21:32;100003.94;;;24.25;100.00
20019;BME280;10170;42.502;26.526;2022-09-09T07:23:59;100009.50;;;24.38;100.00
20019;BME280;10170;42.502;26.526;2022-09-09T07:26:29;100013.59;;;24.07;100.00
20019;BME280;10170;42.502;26.526;2022-09-09T07:28:56;100029.13;;;24.02;100.00
20019;BME280;10170;42.502;26.526;2022-09-09T07:31:32;100017.66;;;24.10;100.00
20019;BME280;10170;42.502;26.526;2022-09-09T07:34:00;100017.19;;;24.83;100.00
20019;BME280;10170;42.502;26.526;2022-09-09T07:36:29;100018.53;;;25.28;100.00
20019;BME280;10170;42.502;26.526;2022-09-09T07:39:08;100015.94;;;25.42;92.90
20019;BME280;10170;42.502;26.526;2022-09-09T07:41:40;100020.56;;;26.11;90.08
20019;BME280;10170;42.502;26.526;2022-09-09T07:44:15;100012.22;;;25.88;89.04
20019;BME280;10170;42.502;26.526;2022-09-09T07:46:42;100003.09;;;25.42;94.36
20019;BME280;10170;42.502;26.526;2022-09-09T07:49:10;100005.09;;;25.74;94.12
20019;BME280;10170;42.502;26.526;2022-09-09T07:51:39;99999.25;;;26.45;87.77
20019;BME280;10170;42.502;26.526;2022-09-09T07:54:10;100004.72;;;26.85;81.71
20019;BME280;10170;42.502;26.526;2022-09-09T07:56:39;100003.50;;;26.51;83.15
20019;BME280;10170;42.502;26.526;2022-09-09T07:59:08;100006.16;;;25.91;84.96
20019;BME280;10170;42.502;26.526;2022-09-09T08:01:38;100004.22;;;26.56;81.63
20019;BME280;10170;42.502;26.526;2022-09-09T08:04:11;99988.44;;;26.53;79.77
20019;BME280;10170;42.502;26.526;2022-09-09T08:06:53;99992.75;;;25.95;81.79
20019;BME280;10170;42.502;26.526;2022-09-09T08:09:21;99989.31;;;25.71;89.51
20019;BME280;10170;42.502;26.526;2022-09-09T08:11:48;99993.88;;;26.53;85.47
20019;BME280;10170;42.502;26.526;2022-09-09T08:14:15;99994.88;;;27.25;77.58
20019;BME280;10170;42.502;26.526;2022-09-09T08:16:46;99990.63;;;27.90;70.33
20019;BME280;10170;42.502;26.526;2022-09-09T08:19:14;99992.13;;;27.74;69.67
20019;BME280;10170;42.502;26.526;2022-09-09T08:21:44;99990.03;;;28.46;63.58
20019;BME280;10170;42.502;26.526;2022-09-09T08:24:12;99974.44;;;27.94;61.22
20019;BME280;10170;42.502;26.526;2022-09-09T08:26:45;99981.50;;;27.73;64.31
20019;BME280;10170;42.502;26.526;2022-09-09T08:29:13;99969.44;;;27.52;64.34
20019;BME280;10170;42.502;26.526;2022-09-09T08:31:41;99975.19;;;28.08;59.35
20019;BME280;10170;42.502;26.526;2022-09-09T08:34:09;99970.22;;;28.80;56.97
20019;BME280;10170;42.502;26.526;2022-09-09T08:36:42;99957.94;;;28.69;58.19
20019;BME280;10170;42.502;26.526;2022-09-09T08:39:10;99955.75;;;28.96;58.13
20019;BME280;10170;42.502;26.526;2022-09-09T08:44:10;99942.06;;;28.96;56.70
20019;BME280;10170;42.502;26.526;2022-09-09T08:52:25;99961.94;;;29.28;53.30
20019;BME280;10170;42.502;26.526;2022-09-09T08:54:57;99955.81;;;29.48;53.12
20019;BME280;10170;42.502;26.526;2022-09-09T08:57:27;99953.06;;;29.99;52.33
20019;BME280;10170;42.502;26.526;2022-09-09T08:59:55;99943.84;;;29.09;53.98
20019;BME280;10170;42.502;26.526;2022-09-09T09:02:46;99950.28;;;28.96;53.28
20019;BME280;10170;42.502;26.526;2022-09-09T09:05:26;99951.63;;;29.42;50.66
20019;BME280;10170;42.502;26.526;2022-09-09T09:13:23;99935.63;;;30.79;47.61
20019;BME280;10170;42.502;26.526;2022-09-09T09:15:56;99922.00;;;30.62;47.64
20019;BME280;10170;42.502;26.526;2022-09-09T09:18:24;99904.91;;;30.85;47.55
20019;BME280;10170;42.502;26.526;2022-09-09T09:23:59;99900.25;;;30.77;47.99
20019;BME280;10170;42.502;26.526;2022-09-09T09:26:30;99911.38;;;31.10;47.68
20019;BME280;10170;42.502;26.526;2022-09-09T09:28:58;99900.44;;;30.81;45.75
20019;BME280;10170;42.502;26.526;2022-09-09T09:31:27;99900.88;;;30.54;45.88
20019;BME280;10170;42.502;26.526;2022-09-09T09:33:55;99903.06;;;30.69;45.84
20019;BME280;10170;42.502;26.526;2022-09-09T09:36:32;99899.88;;;30.87;45.38
20019;BME280;10170;42.502;26.526;2022-09-09T09:39:01;99899.69;;;31.13;44.62
20019;BME280;10170;42.502;26.526;2022-09-09T09:41:49;99903.31;;;31.46;44.41
20019;BME280;10170;42.502;26.526;2022-09-09T09:44:26;99902.59;;;32.15;43.20
20019;BME280;10170;42.502;26.526;2022-09-09T09:49:37;99894.59;;;30.82;45.49
20019;BME280;10170;42.502;26.526;2022-09-09T09:52:05;99891.72;;;31.20;45.24
20019;BME280;10170;42.502;26.526;2022-09-09T09:54:41;99901.28;;;31.88;44.51
20019;BME280;10170;42.502;26.526;2022-09-09T09:57:13;99861.09;;;31.95;43.79
20019;BME280;10170;42.502;26.526;2022-09-09T09:59:41;99902.34;;;31.95;43.16
20019;BME280;10170;42.502;26.526;2022-09-09T10:02:20;99900.22;;;31.80;43.34
20019;BME280;10170;42.502;26.526;2022-09-09T10:05:21;99895.97;;;32.28;42.86
20019;BME280;10170;42.502;26.526;2022-09-09T10:19:01;99882.44;;;31.25;44.59
20019;BME280;10170;42.502;26.526;2022-09-09T10:33:19;99865.47;;;32.09;43.44
20019;BME280;10170;42.502;26.526;2022-09-09T10:38:45;99871.22;;;31.71;44.43
20019;BME280;10170;42.502;26.526;2022-09-09T10:43:50;99853.63;;;31.31;44.44
20019;BME280;10170;42.502;26.526;2022-09-09T10:49:26;99833.41;;;32.76;41.73
20019;BME280;10170;42.502;26.526;2022-09-09T10:55:10;99846.00;;;33.01;39.94
20019;BME280;10170;42.502;26.526;2022-09-09T11:00:30;99845.44;;;33.79;39.89
20019;BME280;10170;42.502;26.526;2022-09-09T11:03:03;99827.72;;;32.57;40.12
20019;BME280;10170;42.502;26.526;2022-09-09T11:05:38;99817.81;;;32.80;40.32
20019;BME280;10170;42.502;26.526;2022-09-09T11:08:23;99834.44;;;31.87;41.11
20019;BME280;10170;42.502;26.526;2022-09-09T11:16:30;99832.88;;;32.23;40.03
20019;BME280;10170;42.502;26.526;2022-09-09T11:28:05;99801.94;;;32.77;39.20
20019;BME280;10170;42.502;26.526;2022-09-09T11:36:35;99803.03;;;33.28;38.92
20019;BME280;10170;42.502;26.526;2022-09-09T11:44:40;99786.22;;;33.76;37.36
20019;BME280;10170;42.502;26.526;2022-09-09T11:47:27;99780.63;;;34.04;36.76
20019;BME280;10170;42.502;26.526;2022-09-09T11:52:43;99766.13;;;34.42;36.83
20019;BME280;10170;42.502;26.526;2022-09-09T11:55:30;99775.69;;;34.29;37.69
20019;BME280;10170;42.502;26.526;2022-09-09T11:58:01;99772.94;;;34.63;37.12
20019;BME280;10170;42.502;26.526;2022-09-09T12:00:42;99779.75;;;34.50;36.82
20019;BME280;10170;42.502;26.526;2022-09-09T12:06:09;99760.00;;;34.33;37.84
20019;BME280;10170;42.502;26.526;2022-09-09T12:08:41;99668.16;;;33.85;37.07
20019;BME280;10170;42.502;26.526;2022-09-09T12:11:09;99755.09;;;34.26;36.90
20019;BME280;10170;42.502;26.526;2022-09-09T12:13:37;99763.31;;;34.57;36.77
20019;BME280;10170;42.502;26.526;2022-09-09T12:16:04;99751.91;;;33.31;37.70
20019;BME280;10170;42.502;26.526;2022-09-09T12:18:33;99750.25;;;34.39;37.14
20019;BME280;10170;42.502;26.526;2022-09-09T12:21:08;99741.91;;;33.54;37.93
20019;BME280;10170;42.502;26.526;2022-09-09T12:24:11;99746.72;;;34.23;36.40
20019;BME280;10170;42.502;26.526;2022-09-09T12:26:47;99741.81;;;33.66;37.63
20019;BME280;10170;42.502;26.526;2022-09-09T12:29:54;99742.78;;;34.39;36.49
20019;BME280;10170;42.502;26.526;2022-09-09T12:32:24;99732.75;;;34.31;36.36
20019;BME280;10170;42.502;26.526;2022-09-09T12:37:48;99732.06;;;33.41;37.92
20019;BME280;10170;42.502;26.526;2022-09-09T12:40:25;99728.31;;;33.33;38.61
20019;BME280;10170;42.502;26.526;2022-09-09T12:42:53;99724.81;;;33.64;37.83
20019;BME280;10170;42.502;26.526;2022-09-09T12:45:23;99719.66;;;33.47;37.81
20019;BME280;10170;42.502;26.526;2022-09-09T12:48:14;99698.97;;;33.87;37.26
20019;BME280;10170;42.502;26.526;2022-09-09T12:50:51;99699.16;;;33.32;38.04
20019;BME280;10170;42.502;26.526;2022-09-09T12:53:24;99705.19;;;34.35;37.15
20019;BME280;10170;42.502;26.526;2022-09-09T12:56:03;99702.88;;;34.75;36.43
20019;BME280;10170;42.502;26.526;2022-09-09T12:58:31;99696.50;;;34.52;37.19
20019;BME280;10170;42.502;26.526;2022-09-09T13:01:00;99695.44;;;35.40;35.51
20019;BME280;10170;42.502;26.526;2022-09-09T13:03:32;99697.50;;;34.82;35.75
20019;BME280;10170;42.502;26.526;2022-09-09T13:06:24;99687.13;;;34.75;35.83
20019;BME280;10170;42.502;26.526;2022-09-09T13:08:56;99685.59;;;34.59;36.06
20019;BME280;10170;42.502;26.526;2022-09-09T13:11:35;99679.69;;;34.79;36.02
20019;BME280;10170;42.502;26.526;2022-09-09T13:14:05;99686.94;;;34.11;36.97
20019;BME280;10170;42.502;26.526;2022-09-09T13:16:34;99678.13;;;34.25;37.07
20019;BME280;10170;42.502;26.526;2022-09-09T13:19:12;99679.91;;;33.98;37.42
20019;BME280;10170;42.502;26.526;2022-09-09T13:21:41;99661.38;;;34.52;36.24
20019;BME280;10170;42.502;26.526;2022-09-09T13:24:31;99682.47;;;34.60;36.52
20019;BME280;10170;42.502;26.526;2022-09-09T13:27:04;99665.84;;;34.98;36.04
20019;BME280;10170;42.502;26.526;2022-09-09T13:29:32;99677.47;;;35.08;35.94
20019;BME280;10170;42.502;26.526;2022-09-09T13:32:15;99664.66;;;34.58;36.06
20019;BME280;10170;42.502;26.526;2022-09-09T13:34:51;99661.19;;;35.03;35.63
20019;BME280;10170;42.502;26.526;2022-09-09T13:37:36;99656.34;;;34.77;36.13
20019;BME280;10170;42.502;26.526;2022-09-09T13:40:17;99641.50;;;33.58;37.25
20019;BME280;10170;42.502;26.526;2022-09-09T13:42:45;99657.16;;;34.20;36.78
20019;BME280;10170;42.502;26.526;2022-09-09T13:45:18;99653.69;;;35.26;35.23
20019;BME280;10170;42.502;26.526;2022-09-09T13:47:49;99652.75;;;35.63;34.86
20019;BME280;10170;42.502;26.526;2022-09-09T13:50:26;99644.47;;;36.19;33.75
20019;BME280;10170;42.502;26.526;2022-09-09T13:52:55;99647.78;;;36.61;33.32
20019;BME280;10170;42.502;26.526;2022-09-09T13:55:27;99645.09;;;36.68;32.51
20019;BME280;10170;42.502;26.526;2022-09-09T13:57:58;99589.16;;;36.26;33.24
20019;BME280;10170;42.502;26.526;2022-09-09T14:00:30;99650.75;;;36.42;33.03
20019;BME280;10170;42.502;26.526;2022-09-09T14:02:58;99657.72;;;36.03;33.30
20019;BME280;10170;42.502;26.526;2022-09-09T14:05:30;99634.91;;;34.51;35.06
20019;BME280;10170;42.502;26.526;2022-09-09T14:07:58;99620.66;;;34.30;35.25
20019;BME280;10170;42.502;26.526;2022-09-09T14:10:27;99638.31;;;33.72;36.26
20019;BME280;10170;42.502;26.526;2022-09-09T14:12:53;99631.75;;;32.86;37.29
20019;BME280;10170;42.502;26.526;2022-09-09T14:15:20;99627.72;;;32.96;37.78
20019;BME280;10170;42.502;26.526;2022-09-09T14:17:48;99627.59;;;32.92;37.78
20019;BME280;10170;42.502;26.526;2022-09-09T14:20:15;99635.31;;;32.71;37.30
20019;BME280;10170;42.502;26.526;2022-09-09T14:22:44;99627.53;;;32.34;38.33
20019;BME280;10170;42.502;26.526;2022-09-09T14:25:11;99622.31;;;32.17;38.33
20019;BME280;10170;42.502;26.526;2022-09-09T14:27:40;99617.50;;;32.14;38.59
20019;BME280;10170;42.502;26.526;2022-09-09T14:30:07;99619.19;;;32.18;38.65
20019;BME280;10170;42.502;26.526;2022-09-09T14:32:34;99622.16;;;31.97;38.36
20019;BME280;10170;42.502;26.526;2022-09-09T14:35:01;99619.72;;;31.84;39.44
20019;BME280;10170;42.502;26.526;2022-09-09T14:37:28;99614.06;;;31.53;39.05
20019;BME280;10170;42.502;26.526;2022-09-09T14:39:57;99613.38;;;31.44;39.30
20019;BME280;10170;42.502;26.526;2022-09-09T14:42:24;99604.31;;;31.19;39.25
20019;BME280;10170;42.502;26.526;2022-09-09T14:44:52;99607.38;;;31.30;39.79
20019;BME280;10170;42.502;26.526;2022-09-09T14:47:19;99609.88;;;31.11;39.79
20019;BME280;10170;42.502;26.526;2022-09-09T14:49:46;99609.13;;;30.77;39.98
20019;BME280;10170;42.502;26.526;2022-09-09T14:52:16;99614.69;;;31.01;40.04
20019;BME280;10170;42.502;26.526;2022-09-09T14:54:43;99613.09;;;31.00;40.19
20019;BME280;10170;42.502;26.526;2022-09-09T14:57:09;99610.22;;;30.85;39.82
20019;BME280;10170;42.502;26.526;2022-09-09T14:59:36;99607.47;;;30.97;40.07
20019;BME280;10170;42.502;26.526;2022-09-09T15:02:03;99599.59;;;30.95;40.22
20019;BME280;10170;42.502;26.526;2022-09-09T15:04:31;99604.72;;;30.85;40.04
20019;BME280;10170;42.502;26.526;2022-09-09T15:06:58;99590.25;;;30.76;40.07
20019;BME280;10170;42.502;26.526;2022-09-09T15:09:25;99593.75;;;30.64;40.40
20019;BME280;10170;42.502;26.526;2022-09-09T15:11:51;99581.97;;;30.64;40.41